Current | Forecast
Updated: 11:30 AM MSK on August 18, 2017
Observed at Elista, Russia
Temperature 91°F
Humidity 12%
Dew Point 32°F
Wind East at 20 mph
Wind Gust 31 mph
Pressure 30.01 in (Steady)
Conditions Clear
Visibility -
UV N/A
Clouds
Yesterday's Maximum 93°F
Yesterday's Minimum 63°F approx.
Yesterday's Cooling Degree Days 13 approx.
Sunrise5:05 AM MSK
Sunset7:09 PM MSK
Moon Rise1:06 AM MSK
Moon Set4:36 PM MSK
Moon PhaseMoon Phase
Waning Crescent
Raw METARMETAR URWI 180830Z 10009G14MPS CAVOK 33/M00 Q1016 TEMPO 09010G17MPS


Monday
. High: 71° F.
Tuesday
. High: 68° F.
Wednesday
. High: 59° F.
Thursday
. High: 55° F.
Friday
. High: 55° F.
Saturday
. High: 66° F.
Sunday
. High: 62° F.
Monday
. High: 66° F.

Units: English | Metric

Find the Weather for any City, State or Zipcode, or Country:

U.S. State List | Severe Weather | Tropical Storms | Ski Conditions
United States | Canada | Central America | South America | Asia | Europe | Australia | Africa | Islands

Weather Underground

© Copyright 2017
The Weather Company, LLC